Time;durP1;ratioP1;P1;durP2;ratioP2;P2;SDS_P1;SDS_P2;PMS_P1;PMS_P2;Temp;Humidity;BMP_temperature;BMP_pressure;BME280_temperature;BME280_humidity;BME280_pressure;Samples;Min_cycle;Max_cycle;Signal;HPM_P1;HPM_P2
2024/02/15 01:51:01;;;;;;;1999.90;999.90;;;;;;;;;;5347472;22;20252;-68
2024/02/15 01:53:46;;;;;;;1999.90;999.90;;;;;;;;;;5032382;28;20271;-69
2024/02/15 01:56:31;;;;;;;1999.90;999.90;;;;;;;;;;5030722;28;20397;-69
2024/02/15 01:59:17;;;;;;;1999.90;999.90;;;;;;;;;;5030677;28;20225;-70
2024/02/15 02:02:03;;;;;;;1999.90;999.90;;;;;;;;;;5013344;28;20705;-69
2024/02/15 02:04:48;;;;;;;1999.90;999.90;;;;;;;;;;5018663;28;20720;-70
2024/02/15 02:07:35;;;;;;;1999.90;999.90;;;;;;;;;;5012299;28;20583;-68
2024/02/15 02:10:20;;;;;;;1999.90;999.90;;;;;;;;;;5011923;28;20335;-69
2024/02/15 02:13:05;;;;;;;1999.90;999.90;;;;;;;;;;5012326;28;20260;-69
2024/02/15 02:15:51;;;;;;;1999.90;999.90;;;;;;;;;;5017709;28;20216;-69
2024/02/15 02:18:36;;;;;;;1999.90;999.90;;;;;;;;;;5012131;28;20215;-68
2024/02/15 02:21:21;;;;;;;1999.90;999.90;;;;;;;;;;5011650;28;20381;-67
2024/02/15 02:24:13;;;;;;;1999.90;999.90;;;;;;;;;;5019420;28;20716;-69
2024/02/15 02:27:00;;;;;;;1999.90;999.90;;;;;;;;;;5011890;28;20764;-67
2024/02/15 02:29:46;;;;;;;1999.90;999.90;;;;;;;;;;5011751;28;20244;-68
2024/02/15 02:32:33;;;;;;;1999.90;999.90;;;;;;;;;;5017870;28;20225;-68
2024/02/15 02:35:20;;;;;;;1999.90;999.90;;;;;;;;;;5011711;28;20224;-66
2024/02/15 02:38:05;;;;;;;1999.90;999.90;;;;;;;;;;5018521;28;20252;-69
2024/02/15 02:40:50;;;;;;;1999.90;999.90;;;;;;;;;;5011708;28;20257;-69
2024/02/15 02:43:37;;;;;;;1999.90;999.90;;;;;;;;;;5011928;28;20218;-69
2024/02/15 02:46:22;;;;;;;1999.90;999.90;;;;;;;;;;5019742;28;20302;-70
2024/02/15 02:49:07;;;;;;;1999.90;999.90;;;;;;;;;;5011482;28;20703;-68
2024/02/15 02:51:52;;;;;;;1999.90;999.90;;;;;;;;;;5007237;28;20756;-69
2024/02/15 02:54:37;;;;;;;1999.90;999.90;;;;;;;;;;5014918;28;20205;-70
2024/02/15 02:57:22;;;;;;;1999.90;999.90;;;;;;;;;;5023344;28;20297;-70
2024/02/15 03:00:12;;;;;;;1999.90;999.90;;;;;;;;;;5031405;28;20356;-69
2024/02/15 03:02:57;;;;;;;1999.90;999.90;;;;;;;;;;5031425;28;20216;-68
2024/02/15 03:05:42;;;;;;;1999.90;999.90;;;;;;;;;;5031622;28;20229;-66
2024/02/15 03:08:27;;;;;;;1999.90;999.90;;;;;;;;;;5031581;28;20332;-69
2024/02/15 03:11:12;;;;;;;1999.90;999.90;;;;;;;;;;5031366;28;20236;-69
2024/02/15 03:13:59;;;;;;;1999.90;999.90;;;;;;;;;;5031610;28;20213;-69
2024/02/15 03:16:45;;;;;;;1999.90;999.90;;;;;;;;;;5031562;28;20287;-70
2024/02/15 03:19:31;;;;;;;1999.90;999.90;;;;;;;;;;5031259;28;20724;-70
2024/02/15 03:22:16;;;;;;;1999.90;999.90;;;;;;;;;;5031393;28;20247;-69
2024/02/15 03:25:01;;;;;;;1999.90;999.90;;;;;;;;;;5031374;28;20282;-69
2024/02/15 03:27:46;;;;;;;1999.90;999.90;;;;;;;;;;5018963;28;20212;-70
2024/02/15 03:30:33;;;;;;;1999.90;999.90;;;;;;;;;;5021171;28;20240;-70
2024/02/15 03:33:26;;;;;;;1999.90;999.90;;;;;;;;;;5026508;28;20272;-69
2024/02/15 03:36:15;;;;;;;1999.90;999.90;;;;;;;;;;5014030;28;20292;-70
2024/02/15 03:39:00;;;;;;;1999.90;999.90;;;;;;;;;;5009231;28;20217;-69
2024/02/15 03:41:46;;;;;;;1999.90;999.90;;;;;;;;;;5013940;28;20217;-70
2024/02/15 03:44:31;;;;;;;1999.90;999.90;;;;;;;;;;5013562;28;20220;-69
2024/02/15 03:47:16;;;;;;;1999.90;999.90;;;;;;;;;;5021863;28;20240;-70
2024/02/15 03:50:02;;;;;;;1999.90;999.90;;;;;;;;;;5014079;28;20243;-70
2024/02/15 03:52:47;;;;;;;1999.90;999.90;;;;;;;;;;4995316;28;20210;-70
2024/02/15 03:55:33;;;;;;;1999.90;999.90;;;;;;;;;;5023191;28;20209;-70
2024/02/15 03:58:18;;;;;;;1999.90;999.90;;;;;;;;;;5018560;28;20215;-70
2024/02/15 04:01:04;;;;;;;1999.90;999.90;;;;;;;;;;5017063;28;20283;-70
2024/02/15 04:03:49;;;;;;;1999.90;999.90;;;;;;;;;;5016801;28;20225;-70
2024/02/15 04:06:36;;;;;;;1999.90;999.90;;;;;;;;;;5023399;28;20614;-70
2024/02/15 04:09:21;;;;;;;1999.90;999.90;;;;;;;;;;5016079;28;20217;-70
2024/02/15 04:12:07;;;;;;;1999.90;999.90;;;;;;;;;;5018553;28;20808;-70
2024/02/15 04:14:52;;;;;;;1999.90;999.90;;;;;;;;;;5017682;28;20578;-70
2024/02/15 04:17:38;;;;;;;1999.90;999.90;;;;;;;;;;5022756;28;20290;-69
2024/02/15 04:20:23;;;;;;;1999.90;999.90;;;;;;;;;;5019380;28;20616;-70
2024/02/15 04:23:09;;;;;;;1999.90;999.90;;;;;;;;;;5029861;28;20209;-70
2024/02/15 04:25:54;;;;;;;1999.90;999.90;;;;;;;;;;5014065;28;20234;-70
2024/02/15 04:28:39;;;;;;;1999.90;999.90;;;;;;;;;;5021397;28;20264;-69
2024/02/15 04:31:26;;;;;;;1999.90;999.90;;;;;;;;;;5022269;28;20234;-70
2024/02/15 04:34:11;;;;;;;1999.90;999.90;;;;;;;;;;5013325;28;20221;-69
2024/02/15 04:36:56;;;;;;;1999.90;999.90;;;;;;;;;;5012666;28;20292;-70
2024/02/15 04:39:42;;;;;;;1999.90;999.90;;;;;;;;;;5014540;28;20782;-69
2024/02/15 04:42:27;;;;;;;1999.90;999.90;;;;;;;;;;5016563;28;20197;-70
2024/02/15 04:45:14;;;;;;;1999.90;999.90;;;;;;;;;;5018646;28;20224;-69
2024/02/15 04:48:01;;;;;;;1999.90;999.90;;;;;;;;;;4997878;28;20282;-70
2024/02/15 04:50:47;;;;;;;1999.90;999.90;;;;;;;;;;5021348;28;20748;-67
2024/02/15 04:53:32;;;;;;;1999.90;999.90;;;;;;;;;;5011504;28;20197;-69
2024/02/15 04:56:20;;;;;;;1999.90;999.90;;;;;;;;;;5009955;28;20221;-69
2024/02/15 04:59:08;;;;;;;1999.90;999.90;;;;;;;;;;5011164;28;20621;-68
2024/02/15 05:01:54;;;;;;;1999.90;999.90;;;;;;;;;;5016821;28;20869;-69
2024/02/15 05:04:42;;;;;;;1999.90;999.90;;;;;;;;;;5016718;28;20213;-67
2024/02/15 05:07:27;;;;;;;1999.90;999.90;;;;;;;;;;5013766;28;20233;-68
2024/02/15 05:10:12;;;;;;;1999.90;999.90;;;;;;;;;;5012949;28;20338;-67
2024/02/15 05:13:01;;;;;;;1999.90;999.90;;;;;;;;;;5012994;28;20701;-69
2024/02/15 05:15:46;;;;;;;1999.90;999.90;;;;;;;;;;5013095;28;20217;-68
2024/02/15 05:18:30;;;;;;;1999.90;999.90;;;;;;;;;;5013199;28;20701;-69
2024/02/15 05:21:16;;;;;;;1999.90;999.90;;;;;;;;;;5012880;28;20734;-69
2024/02/15 05:24:00;;;;;;;1999.90;999.90;;;;;;;;;;5017661;28;20351;-68
2024/02/15 05:26:47;;;;;;;1999.90;999.90;;;;;;;;;;5012029;28;20237;-68
2024/02/15 05:29:34;;;;;;;1999.90;999.90;;;;;;;;;;5013348;28;20840;-69
2024/02/15 05:32:20;;;;;;;1999.90;999.90;;;;;;;;;;5017604;28;20709;-69
2024/02/15 05:35:05;;;;;;;1999.90;999.90;;;;;;;;;;5012791;28;20953;-68
2024/02/15 05:37:52;;;;;;;1999.90;999.90;;;;;;;;;;5013073;28;20288;-69
2024/02/15 05:40:37;;;;;;;1999.90;999.90;;;;;;;;;;5010137;28;20232;-68
2024/02/15 05:43:22;;;;;;;1999.90;999.90;;;;;;;;;;5021015;28;20212;-67
2024/02/15 05:46:08;;;;;;;1999.90;999.90;;;;;;;;;;5024779;28;20268;-68
2024/02/15 05:48:53;;;;;;;1999.90;999.90;;;;;;;;;;5012272;28;20306;-66
2024/02/15 05:51:38;;;;;;;1999.90;999.90;;;;;;;;;;5012507;28;21051;-69
2024/02/15 05:54:23;;;;;;;1999.90;999.90;;;;;;;;;;5016833;28;20303;-68
2024/02/15 05:57:08;;;;;;;1999.90;999.90;;;;;;;;;;5011739;28;20221;-69
2024/02/15 05:59:54;;;;;;;1999.90;999.90;;;;;;;;;;5011502;28;20607;-69
2024/02/15 06:02:40;;;;;;;1999.90;999.90;;;;;;;;;;5012463;28;20599;-68
2024/02/15 06:05:25;;;;;;;1999.90;999.90;;;;;;;;;;5012759;28;20214;-69
2024/02/15 06:08:12;;;;;;;1999.90;999.90;;;;;;;;;;5016197;28;20563;-68
2024/02/15 06:10:56;;;;;;;1999.90;999.90;;;;;;;;;;5012236;28;20356;-69
2024/02/15 06:13:42;;;;;;;1999.90;999.90;;;;;;;;;;5011722;28;20261;-69
2024/02/15 06:16:27;;;;;;;1999.90;999.90;;;;;;;;;;5027874;28;20585;-68
2024/02/15 06:19:14;;;;;;;1999.90;999.90;;;;;;;;;;5013855;28;20201;-68
2024/02/15 06:22:00;;;;;;;1999.90;999.90;;;;;;;;;;5007760;28;20207;-68
2024/02/15 06:24:46;;;;;;;1999.90;999.90;;;;;;;;;;5015225;28;20225;-69
2024/02/15 06:40:10;;;;;;;1999.90;999.90;;;;;;;;;;5020115;28;20263;-69
2024/02/15 06:42:54;;;;;;;1999.90;999.90;;;;;;;;;;5014814;28;20281;-69
2024/02/15 06:45:44;;;;;;;1999.90;999.90;;;;;;;;;;5022792;28;20217;-69
2024/02/15 06:48:29;;;;;;;1999.90;999.90;;;;;;;;;;5012061;28;20712;-69
2024/02/15 06:51:14;;;;;;;1999.90;999.90;;;;;;;;;;5010928;28;20238;-68
2024/02/15 06:54:01;;;;;;;1999.90;999.90;;;;;;;;;;5017440;28;20224;-69
2024/02/15 06:56:47;;;;;;;1999.90;999.90;;;;;;;;;;5019922;28;20471;-69
2024/02/15 06:59:32;;;;;;;1999.90;999.90;;;;;;;;;;5009841;28;20323;-69
2024/02/15 07:02:17;;;;;;;1999.90;999.90;;;;;;;;;;5023015;28;20209;-69
2024/02/15 07:05:03;;;;;;;1999.90;999.90;;;;;;;;;;5011772;28;20724;-69
2024/02/15 07:07:48;;;;;;;1999.90;999.90;;;;;;;;;;5013509;28;20714;-69
2024/02/15 07:10:34;;;;;;;1999.90;999.90;;;;;;;;;;5014743;28;20233;-69
2024/02/15 07:13:19;;;;;;;1999.90;999.90;;;;;;;;;;5013623;28;20284;-69
2024/02/15 07:16:08;;;;;;;1999.90;999.90;;;;;;;;;;5012055;28;20205;-69
2024/02/15 07:18:52;;;;;;;1999.90;999.90;;;;;;;;;;5016546;28;20344;-69
2024/02/15 07:21:38;;;;;;;1999.90;999.90;;;;;;;;;;5018755;28;20736;-69
2024/02/15 07:24:22;;;;;;;1999.90;999.90;;;;;;;;;;5005609;28;20337;-67
2024/02/15 07:27:09;;;;;;;1999.90;999.90;;;;;;;;;;5023367;28;20234;-69
2024/02/15 07:29:55;;;;;;;1999.90;999.90;;;;;;;;;;5020443;28;20485;-68
2024/02/15 07:32:40;;;;;;;1999.90;999.90;;;;;;;;;;5015376;28;20218;-69
2024/02/15 07:35:26;;;;;;;1999.90;999.90;;;;;;;;;;5020452;28;20222;-68
2024/02/15 07:38:12;;;;;;;1999.90;999.90;;;;;;;;;;5014818;28;20209;-67
2024/02/15 07:40:57;;;;;;;1999.90;999.90;;;;;;;;;;5014270;28;20237;-68
2024/02/15 07:43:44;;;;;;;1999.90;999.90;;;;;;;;;;5023263;28;20586;-68
2024/02/15 07:46:29;;;;;;;1999.90;999.90;;;;;;;;;;5022939;28;20292;-68
2024/02/15 07:49:14;;;;;;;1999.90;999.90;;;;;;;;;;5002639;28;20460;-68
2024/02/15 07:52:00;;;;;;;1999.90;999.90;;;;;;;;;;4995253;28;20596;-67
2024/02/15 07:54:46;;;;;;;1999.90;999.90;;;;;;;;;;4995836;28;20214;-69
2024/02/15 07:57:31;;;;;;;1999.90;999.90;;;;;;;;;;4998314;28;20698;-67
2024/02/15 08:00:18;;;;;;;1999.90;999.90;;;;;;;;;;5014659;28;20283;-68
2024/02/15 08:03:03;;;;;;;1999.90;999.90;;;;;;;;;;5012259;28;20206;-68
2024/02/15 08:05:48;;;;;;;1999.90;999.90;;;;;;;;;;5022218;28;20246;-68
2024/02/15 08:08:35;;;;;;;1999.90;999.90;;;;;;;;;;5014526;28;20205;-68
2024/02/15 08:11:20;;;;;;;1999.90;999.90;;;;;;;;;;5012936;28;20232;-69
2024/02/15 08:14:08;;;;;;;1999.90;999.90;;;;;;;;;;5018354;28;20344;-68
2024/02/15 08:16:55;;;;;;;1999.90;999.90;;;;;;;;;;5030519;28;20209;-68
2024/02/15 08:19:41;;;;;;;1999.90;999.90;;;;;;;;;;5034181;28;20276;-68
2024/02/15 08:22:26;;;;;;;1999.90;999.90;;;;;;;;;;5020643;28;20966;-68
2024/02/15 08:25:12;;;;;;;1999.90;999.90;;;;;;;;;;5024689;28;20208;-68
2024/02/15 08:27:57;;;;;;;1999.90;999.90;;;;;;;;;;5031117;28;20229;-69
2024/02/15 08:30:42;;;;;;;1999.90;999.90;;;;;;;;;;5023187;28;20233;-69
2024/02/15 08:33:28;;;;;;;1999.90;999.90;;;;;;;;;;5014374;28;20284;-69
2024/02/15 08:36:13;;;;;;;1999.90;999.90;;;;;;;;;;5014297;28;20208;-69
2024/02/15 08:38:59;;;;;;;1999.90;999.90;;;;;;;;;;5015647;28;20431;-69
2024/02/15 08:41:46;;;;;;;1999.90;999.90;;;;;;;;;;5010285;28;20217;-69
2024/02/15 08:44:31;;;;;;;1999.90;999.90;;;;;;;;;;5017750;28;20204;-71
2024/02/15 08:47:16;;;;;;;1999.90;999.90;;;;;;;;;;5032934;28;20217;-70
2024/02/15 08:50:03;;;;;;;1999.90;999.90;;;;;;;;;;5032111;28;20245;-71
2024/02/15 08:52:47;;;;;;;1999.90;999.90;;;;;;;;;;5033743;28;20311;-70
2024/02/15 08:55:35;;;;;;;1999.90;999.90;;;;;;;;;;5028660;28;20592;-70
2024/02/15 08:58:21;;;;;;;1999.90;999.90;;;;;;;;;;5019225;28;20327;-70
2024/02/15 09:01:07;;;;;;;1999.90;999.90;;;;;;;;;;5028870;28;20245;-70
2024/02/15 09:03:52;;;;;;;1999.90;999.90;;;;;;;;;;5012082;28;20347;-70
2024/02/15 09:06:38;;;;;;;1999.90;999.90;;;;;;;;;;5019970;28;20216;-71
2024/02/15 09:09:23;;;;;;;1999.90;999.90;;;;;;;;;;5007889;28;20236;-70
2024/02/15 09:12:08;;;;;;;1999.90;999.90;;;;;;;;;;5023871;28;20282;-71
2024/02/15 09:14:54;;;;;;;1999.90;999.90;;;;;;;;;;5013281;28;20209;-71
2024/02/15 09:17:39;;;;;;;1999.90;999.90;;;;;;;;;;5007289;28;20580;-70
2024/02/15 09:20:28;;;;;;;1999.90;999.90;;;;;;;;;;5016125;28;20232;-71
2024/02/15 09:23:14;;;;;;;1999.90;999.90;;;;;;;;;;5017989;28;20217;-70
2024/02/15 09:25:59;;;;;;;1999.90;999.90;;;;;;;;;;5012848;28;20217;-71
2024/02/15 09:28:44;;;;;;;1999.90;999.90;;;;;;;;;;5015612;28;20375;-70
2024/02/15 09:31:29;;;;;;;1999.90;999.90;;;;;;;;;;5008902;28;20800;-71
2024/02/15 09:34:14;;;;;;;1999.90;999.90;;;;;;;;;;5009599;28;20212;-71
2024/02/15 09:36:58;;;;;;;1999.90;999.90;;;;;;;;;;5023500;28;20283;-70
2024/02/15 09:39:46;;;;;;;1999.90;999.90;;;;;;;;;;5029300;28;20236;-71
2024/02/15 09:42:30;;;;;;;1999.90;999.90;;;;;;;;;;5007332;28;20283;-70
2024/02/15 09:45:16;;;;;;;1999.90;999.90;;;;;;;;;;5023957;28;20213;-71
2024/02/15 09:48:05;;;;;;;1999.90;999.90;;;;;;;;;;5031823;28;20613;-71
2024/02/15 09:50:53;;;;;;;1999.90;999.90;;;;;;;;;;5032035;28;20248;-71
2024/02/15 09:53:38;;;;;;;1999.90;999.90;;;;;;;;;;5021964;28;20209;-71
2024/02/15 09:56:25;;;;;;;1999.90;999.90;;;;;;;;;;5017654;28;20279;-71
2024/02/15 09:59:10;;;;;;;1999.90;999.90;;;;;;;;;;5032206;28;20707;-70
2024/02/15 10:01:58;;;;;;;1999.90;999.90;;;;;;;;;;5023858;28;20419;-70
2024/02/15 10:04:43;;;;;;;1999.90;999.90;;;;;;;;;;5028379;28;20213;-68
2024/02/15 10:07:29;;;;;;;1999.90;999.90;;;;;;;;;;5030028;28;20216;-70
2024/02/15 10:10:18;;;;;;;1999.90;999.90;;;;;;;;;;5016895;28;20283;-69
2024/02/15 10:13:04;;;;;;;1999.90;999.90;;;;;;;;;;5009803;28;20743;-69
2024/02/15 10:15:51;;;;;;;1999.90;999.90;;;;;;;;;;5009336;28;20213;-69
2024/02/15 10:18:35;;;;;;;1999.90;999.90;;;;;;;;;;5004840;28;20221;-69
2024/02/15 10:21:29;;;;;;;1999.90;999.90;;;;;;;;;;5009545;28;20233;-69
2024/02/15 10:24:14;;;;;;;1999.90;999.90;;;;;;;;;;5007876;28;20211;-68
2024/02/15 10:27:03;;;;;;;1999.90;999.90;;;;;;;;;;5007723;28;20304;-69
2024/02/15 10:29:49;;;;;;;1999.90;999.90;;;;;;;;;;5027175;28;20311;-69
2024/02/15 10:32:35;;;;;;;1999.90;999.90;;;;;;;;;;5006760;28;20263;-69
2024/02/15 10:35:20;;;;;;;1999.90;999.90;;;;;;;;;;5006475;28;20260;-69
2024/02/15 10:38:06;;;;;;;1999.90;999.90;;;;;;;;;;5005670;28;20257;-69
2024/02/15 10:41:04;;;;;;;1999.90;999.90;;;;;;;;;;5005093;28;20307;-70
2024/02/15 10:43:50;;;;;;;1999.90;999.90;;;;;;;;;;4997758;28;20290;-69
2024/02/15 10:46:36;;;;;;;1999.90;999.90;;;;;;;;;;5013701;28;20221;-70
2024/02/15 10:49:22;;;;;;;1999.90;999.90;;;;;;;;;;5010497;28;20787;-70
2024/02/15 10:52:10;;;;;;;1999.90;999.90;;;;;;;;;;5008428;28;20211;-70
2024/02/15 10:55:00;;;;;;;1999.90;999.90;;;;;;;;;;5010178;28;20224;-70
2024/02/15 10:57:48;;;;;;;1999.90;999.90;;;;;;;;;;5010399;28;20216;-70
2024/02/15 11:00:37;;;;;;;1999.90;999.90;;;;;;;;;;5018271;28;20233;-70
2024/02/15 11:03:26;;;;;;;1999.90;999.90;;;;;;;;;;5019236;28;20630;-70
2024/02/15 11:06:12;;;;;;;1999.90;999.90;;;;;;;;;;5015575;28;20285;-71
2024/02/15 11:08:57;;;;;;;1999.90;999.90;;;;;;;;;;5015645;28;20587;-70
2024/02/15 11:11:44;;;;;;;1999.90;999.90;;;;;;;;;;5017125;28;20648;-71
2024/02/15 11:14:29;;;;;;;1999.90;999.90;;;;;;;;;;5015839;28;20202;-70
2024/02/15 11:17:35;;;;;;;1999.90;999.90;;;;;;;;;;5019805;28;20218;-70
2024/02/15 11:20:38;;;;;;;1999.90;999.90;;;;;;;;;;5034915;28;20288;-70
2024/02/15 11:23:28;;;;;;;1999.90;999.90;;;;;;;;;;5028243;28;20221;-71
2024/02/15 11:26:43;;;;;;;1999.90;999.90;;;;;;;;;;5026953;28;20290;-71
2024/02/15 11:29:48;;;;;;;1999.90;999.90;;;;;;;;;;5030742;28;20296;-71
2024/02/15 11:32:39;;;;;;;1999.90;999.90;;;;;;;;;;5020770;28;20369;-71
2024/02/15 11:35:25;;;;;;;1999.90;999.90;;;;;;;;;;5029259;28;20217;-71
2024/02/15 11:38:14;;;;;;;1999.90;999.90;;;;;;;;;;5034298;28;20603;-72
2024/02/15 11:41:03;;;;;;;1999.90;999.90;;;;;;;;;;5027061;28;20354;-71
2024/02/15 11:43:58;;;;;;;1999.90;999.90;;;;;;;;;;5017988;28;20276;-71
2024/02/15 11:46:43;;;;;;;1999.90;999.90;;;;;;;;;;4994430;28;20214;-71
2024/02/15 11:49:28;;;;;;;1999.90;999.90;;;;;;;;;;5014004;28;20249;-70
2024/02/15 11:52:13;;;;;;;1999.90;999.90;;;;;;;;;;5024589;28;20324;-71
2024/02/15 11:55:05;;;;;;;1999.90;999.90;;;;;;;;;;5011082;28;20468;-71
2024/02/15 11:58:04;;;;;;;1999.90;999.90;;;;;;;;;;5016531;28;20230;-71
2024/02/15 12:19:10;;;;;;;1999.90;999.90;;;;;;;;;;5022025;28;20644;-71
2024/02/15 12:21:57;;;;;;;1999.90;999.90;;;;;;;;;;5024230;28;20288;-71
2024/02/15 12:24:42;;;;;;;1999.90;999.90;;;;;;;;;;5018354;28;20206;-71
2024/02/15 12:27:27;;;;;;;1999.90;999.90;;;;;;;;;;5020147;28;20971;-71
2024/02/15 12:30:19;;;;;;;1999.90;999.90;;;;;;;;;;5013445;28;20780;-70
2024/02/15 12:33:10;;;;;;;1999.90;999.90;;;;;;;;;;5017873;28;20215;-72
2024/02/15 12:36:05;;;;;;;1999.90;999.90;;;;;;;;;;5011750;28;20214;-71
2024/02/15 12:38:59;;;;;;;1999.90;999.90;;;;;;;;;;5014915;28;20307;-71
2024/02/15 12:41:49;;;;;;;1999.90;999.90;;;;;;;;;;5014839;28;20290;-71
2024/02/15 12:44:35;;;;;;;1999.90;999.90;;;;;;;;;;5024628;28;20463;-71
2024/02/15 12:47:23;;;;;;;1999.90;999.90;;;;;;;;;;5033595;28;20718;-71
2024/02/15 12:50:14;;;;;;;1999.90;999.90;;;;;;;;;;5022321;28;20246;-71
2024/02/15 12:53:01;;;;;;;1999.90;999.90;;;;;;;;;;5020622;28;20209;-71
2024/02/15 12:55:54;;;;;;;1999.90;999.90;;;;;;;;;;4998911;28;20357;-71
2024/02/15 12:58:40;;;;;;;1999.90;999.90;;;;;;;;;;5021725;28;20199;-71
2024/02/15 13:01:26;;;;;;;1999.90;999.90;;;;;;;;;;5015296;28;20220;-71
2024/02/15 13:04:21;;;;;;;1999.90;999.90;;;;;;;;;;5013838;28;20701;-71
2024/02/15 13:07:07;;;;;;;1999.90;999.90;;;;;;;;;;5013745;28;20334;-71
2024/02/15 13:09:52;;;;;;;1999.90;999.90;;;;;;;;;;5012953;28;20226;-72
2024/02/15 13:12:37;;;;;;;1999.90;999.90;;;;;;;;;;5013522;28;20697;-71
2024/02/15 13:15:27;;;;;;;1999.90;999.90;;;;;;;;;;5013336;28;20416;-71
2024/02/15 13:18:13;;;;;;;1999.90;999.90;;;;;;;;;;5012851;28;20203;-71
2024/02/15 13:21:00;;;;;;;1999.90;999.90;;;;;;;;;;5018287;28;20222;-71
2024/02/15 13:23:44;;;;;;;1999.90;999.90;;;;;;;;;;5013236;28;20706;-71
2024/02/15 13:26:30;;;;;;;1999.90;999.90;;;;;;;;;;5013295;28;20214;-70
2024/02/15 13:29:15;;;;;;;1999.90;999.90;;;;;;;;;;5019450;28;20346;-71
2024/02/15 13:32:01;;;;;;;1999.90;999.90;;;;;;;;;;5020113;28;20307;-71
2024/02/15 13:34:46;;;;;;;1999.90;999.90;;;;;;;;;;5013205;28;20218;-71
2024/02/15 13:37:32;;;;;;;1999.90;999.90;;;;;;;;;;5012147;28;20804;-70
2024/02/15 13:40:22;;;;;;;1999.90;999.90;;;;;;;;;;5011043;28;20318;-72
2024/02/15 13:43:07;;;;;;;1999.90;999.90;;;;;;;;;;5008903;28;20226;-72
2024/02/15 13:45:52;;;;;;;1999.90;999.90;;;;;;;;;;5017344;28;20206;-71
2024/02/15 13:48:37;;;;;;;1999.90;999.90;;;;;;;;;;5018836;28;20230;-72
2024/02/15 13:51:22;;;;;;;1999.90;999.90;;;;;;;;;;5017961;28;20306;-71
2024/02/15 13:54:08;;;;;;;1999.90;999.90;;;;;;;;;;5012572;28;20230;-70
2024/02/15 13:56:53;;;;;;;1999.90;999.90;;;;;;;;;;5014166;28;20217;-72
2024/02/15 13:59:38;;;;;;;1999.90;999.90;;;;;;;;;;5014552;28;20282;-71
2024/02/15 14:02:23;;;;;;;1999.90;999.90;;;;;;;;;;5011952;28;20329;-72
2024/02/15 14:05:09;;;;;;;1999.90;999.90;;;;;;;;;;5015238;28;20797;-72
2024/02/15 14:07:56;;;;;;;1999.90;999.90;;;;;;;;;;5010053;28;20576;-72
2024/02/15 14:10:42;;;;;;;1999.90;999.90;;;;;;;;;;5011229;28;20234;-71
2024/02/15 14:13:27;;;;;;;1999.90;999.90;;;;;;;;;;5010101;28;20279;-71
2024/02/15 14:16:12;;;;;;;1999.90;999.90;;;;;;;;;;5013035;28;20223;-71
2024/02/15 14:18:57;;;;;;;1999.90;999.90;;;;;;;;;;5011886;28;20678;-71
2024/02/15 14:21:44;;;;;;;1999.90;999.90;;;;;;;;;;5010169;28;20273;-72
2024/02/15 14:24:29;;;;;;;1999.90;999.90;;;;;;;;;;5012558;28;20584;-72
2024/02/15 14:27:16;;;;;;;1999.90;999.90;;;;;;;;;;5008597;28;20698;-71
2024/02/15 14:33:08;;;;;;;1999.90;999.90;;;;;;;;;;5008985;28;20214;-71
2024/02/15 14:35:53;;;;;;;1999.90;999.90;;;;;;;;;;5013064;28;20219;-73
2024/02/15 14:38:38;;;;;;;1999.90;999.90;;;;;;;;;;5017479;28;20580;-72
2024/02/15 14:41:22;;;;;;;1999.90;999.90;;;;;;;;;;5013681;28;20353;-72
2024/02/15 14:44:08;;;;;;;1999.90;999.90;;;;;;;;;;5006019;28;20309;-71
2024/02/15 14:46:53;;;;;;;1999.90;999.90;;;;;;;;;;5010778;28;20690;-71
2024/02/15 14:49:39;;;;;;;1999.90;999.90;;;;;;;;;;5013769;28;20349;-71
2024/02/15 14:52:24;;;;;;;1999.90;999.90;;;;;;;;;;5014307;28;20733;-71
2024/02/15 14:55:09;;;;;;;1999.90;999.90;;;;;;;;;;5009050;28;20318;-71
2024/02/15 14:57:55;;;;;;;1999.90;999.90;;;;;;;;;;5022324;28;21088;-72
2024/02/15 15:00:44;;;;;;;1999.90;999.90;;;;;;;;;;5031564;28;20280;-71
2024/02/15 15:03:33;;;;;;;1999.90;999.90;;;;;;;;;;5017473;28;20207;-72
2024/02/15 15:12:40;;;;;;;1999.90;999.90;;;;;;;;;;5023140;28;20293;-71
2024/02/15 15:15:25;;;;;;;1999.90;999.90;;;;;;;;;;5017144;28;20916;-72
2024/02/15 15:18:12;;;;;;;1999.90;999.90;;;;;;;;;;5020164;28;20203;-72
2024/02/15 15:20:56;;;;;;;1999.90;999.90;;;;;;;;;;5023147;28;20742;-72
2024/02/15 15:23:43;;;;;;;1999.90;999.90;;;;;;;;;;5014216;28;20218;-72
2024/02/15 15:26:31;;;;;;;1999.90;999.90;;;;;;;;;;5018553;28;20250;-72
2024/02/15 15:29:16;;;;;;;1999.90;999.90;;;;;;;;;;5016835;28;20363;-71
2024/02/15 15:32:00;;;;;;;1999.90;999.90;;;;;;;;;;5013091;28;20572;-71
2024/02/15 15:34:47;;;;;;;1999.90;999.90;;;;;;;;;;5014650;28;20209;-72
2024/02/15 15:37:32;;;;;;;1999.90;999.90;;;;;;;;;;5026616;28;20210;-71
2024/02/15 15:40:17;;;;;;;1999.90;999.90;;;;;;;;;;5010133;28;20231;-71
2024/02/15 15:43:05;;;;;;;1999.90;999.90;;;;;;;;;;5019531;28;20215;-70
2024/02/15 15:45:51;;;;;;;1999.90;999.90;;;;;;;;;;5015213;28;20222;-71
2024/02/15 15:48:36;;;;;;;1999.90;999.90;;;;;;;;;;5019366;28;20217;-71
2024/02/15 15:51:23;;;;;;;1999.90;999.90;;;;;;;;;;5032331;28;20242;-71
2024/02/15 15:54:07;;;;;;;1999.90;999.90;;;;;;;;;;5029016;28;20329;-71
2024/02/15 15:56:53;;;;;;;1999.90;999.90;;;;;;;;;;5030601;28;20218;-71
2024/02/15 15:59:37;;;;;;;1999.90;999.90;;;;;;;;;;5030804;28;20605;-71
2024/02/15 16:02:22;;;;;;;1999.90;999.90;;;;;;;;;;5032701;28;20328;-71
2024/02/15 16:05:09;;;;;;;1999.90;999.90;;;;;;;;;;5028929;28;20985;-71
2024/02/15 16:07:55;;;;;;;1999.90;999.90;;;;;;;;;;5023910;28;20218;-71
2024/02/15 16:10:40;;;;;;;1999.90;999.90;;;;;;;;;;5033663;28;20230;-72
2024/02/15 16:13:26;;;;;;;1999.90;999.90;;;;;;;;;;5034451;28;20341;-71
2024/02/15 16:16:12;;;;;;;1999.90;999.90;;;;;;;;;;5034256;28;20222;-74
2024/02/15 16:18:57;;;;;;;1999.90;999.90;;;;;;;;;;5019471;28;20202;-71
2024/02/15 16:21:42;;;;;;;1999.90;999.90;;;;;;;;;;5031929;28;20218;-71
2024/02/15 16:24:29;;;;;;;1999.90;999.90;;;;;;;;;;5016282;28;20582;-72
2024/02/15 16:27:13;;;;;;;1999.90;999.90;;;;;;;;;;5028467;28;20210;-72
2024/02/15 16:29:58;;;;;;;1999.90;999.90;;;;;;;;;;5016030;28;20276;-71
2024/02/15 16:32:43;;;;;;;1999.90;999.90;;;;;;;;;;5032445;28;20218;-72
2024/02/15 16:35:28;;;;;;;1999.90;999.90;;;;;;;;;;5010036;28;20474;-72
2024/02/15 16:38:13;;;;;;;1999.90;999.90;;;;;;;;;;5013770;28;20211;-72
2024/02/15 16:41:00;;;;;;;1999.90;999.90;;;;;;;;;;5020256;28;20218;-72
2024/02/15 16:43:46;;;;;;;1999.90;999.90;;;;;;;;;;5020703;28;20277;-72
2024/02/15 16:46:31;;;;;;;1999.90;999.90;;;;;;;;;;5027369;28;20848;-72
2024/02/15 16:49:16;;;;;;;1999.90;999.90;;;;;;;;;;5011940;28;20602;-70
2024/02/15 16:52:01;;;;;;;1999.90;999.90;;;;;;;;;;5014124;28;20971;-72
2024/02/15 16:54:46;;;;;;;1999.90;999.90;;;;;;;;;;5021730;28;20235;-72
2024/02/15 16:57:32;;;;;;;1999.90;999.90;;;;;;;;;;5021201;28;20661;-71
2024/02/15 17:00:17;;;;;;;1999.90;999.90;;;;;;;;;;5021878;28;20225;-71
2024/02/15 17:03:02;;;;;;;1999.90;999.90;;;;;;;;;;4994452;28;20712;-72
2024/02/15 17:05:47;;;;;;;1999.90;999.90;;;;;;;;;;4994332;28;20680;-71
2024/02/15 17:08:32;;;;;;;1999.90;999.90;;;;;;;;;;4993888;28;20251;-71
2024/02/15 17:11:17;;;;;;;1999.90;999.90;;;;;;;;;;5006712;28;20225;-71
2024/02/15 17:14:04;;;;;;;1999.90;999.90;;;;;;;;;;5020538;28;20210;-71
2024/02/15 17:16:50;;;;;;;1999.90;999.90;;;;;;;;;;5018242;28;20211;-72
2024/02/15 17:19:35;;;;;;;1999.90;999.90;;;;;;;;;;5021930;28;20270;-71
2024/02/15 17:22:22;;;;;;;1999.90;999.90;;;;;;;;;;5024906;28;20595;-71
2024/02/15 17:25:07;;;;;;;1999.90;999.90;;;;;;;;;;5025056;28;20402;-70
2024/02/15 17:27:54;;;;;;;1999.90;999.90;;;;;;;;;;5025487;28;20215;-70
2024/02/15 17:30:42;;;;;;;1999.90;999.90;;;;;;;;;;5029731;28;20238;-70
2024/02/15 17:33:28;;;;;;;1999.90;999.90;;;;;;;;;;5033104;28;20213;-70
2024/02/15 17:36:13;;;;;;;1999.90;999.90;;;;;;;;;;5014436;28;20213;-70
2024/02/15 17:39:00;;;;;;;1999.90;999.90;;;;;;;;;;5032611;28;20232;-71
2024/02/15 17:41:46;;;;;;;1999.90;999.90;;;;;;;;;;5020195;28;20460;-70
2024/02/15 17:44:31;;;;;;;1999.90;999.90;;;;;;;;;;5015590;28;20606;-70
2024/02/15 17:47:17;;;;;;;1999.90;999.90;;;;;;;;;;5012828;28;20206;-70
2024/02/15 17:50:02;;;;;;;1999.90;999.90;;;;;;;;;;5016481;28;20257;-71
2024/02/15 17:52:47;;;;;;;1999.90;999.90;;;;;;;;;;5029009;28;20639;-70
2024/02/15 17:55:32;;;;;;;1999.90;999.90;;;;;;;;;;5032436;28;20257;-70
2024/02/15 17:58:17;;;;;;;1999.90;999.90;;;;;;;;;;5032346;28;20278;-71